地図

経路データ

SID SEASON NUMBER BASIN SUBBASIN NAME ISO_TIME NATURE LAT LON WMO_WIND WMO_PRES WMO_AGENCY TRACK_TYPE DIST2LAND LANDFALL IFLAG USA_AGENCY USA_ATCF_ID USA_LAT USA_LON USA_RECORD USA_STATUS USA_WIND USA_PRES USA_SSHS USA_R34_NE USA_R34_SE USA_R34_SW USA_R34_NW USA_R50_NE USA_R50_SE USA_R50_SW USA_R50_NW USA_R64_NE USA_R64_SE USA_R64_SW USA_R64_NW USA_POCI USA_ROCI USA_RMW USA_EYE TOKYO_LAT TOKYO_LON TOKYO_GRADE TOKYO_WIND TOKYO_PRES TOKYO_R50_DIR TOKYO_R50_LONG TOKYO_R50_SHORT TOKYO_R30_DIR TOKYO_R30_LONG TOKYO_R30_SHORT TOKYO_LAND CMA_LAT CMA_LON CMA_CAT CMA_WIND CMA_PRES HKO_LAT HKO_LON HKO_CAT HKO_WIND HKO_PRES NEWDELHI_LAT NEWDELHI_LON NEWDELHI_GRADE NEWDELHI_WIND NEWDELHI_PRES NEWDELHI_CI NEWDELHI_DP NEWDELHI_POCI REUNION_LAT REUNION_LON REUNION_TYPE REUNION_WIND REUNION_PRES REUNION_TNUM REUNION_CI REUNION_RMW REUNION_R34_NE REUNION_R34_SE REUNION_R34_SW REUNION_R34_NW REUNION_R50_NE REUNION_R50_SE REUNION_R50_SW REUNION_R50_NW REUNION_R64_NE REUNION_R64_SE REUNION_R64_SW REUNION_R64_NW BOM_LAT BOM_LON BOM_TYPE BOM_WIND BOM_PRES BOM_TNUM BOM_CI BOM_RMW BOM_R34_NE BOM_R34_SE BOM_R34_SW BOM_R34_NW BOM_R50_NE BOM_R50_SE BOM_R50_SW BOM_R50_NW BOM_R64_NE BOM_R64_SE BOM_R64_SW BOM_R64_NW BOM_ROCI BOM_POCI BOM_EYE BOM_POS_METHOD BOM_PRES_METHOD NADI_LAT NADI_LON NADI_CAT NADI_WIND NADI_PRES WELLINGTON_LAT WELLINGTON_LON WELLINGTON_WIND WELLINGTON_PRES DS824_LAT DS824_LON DS824_STAGE DS824_WIND DS824_PRES TD9636_LAT TD9636_LON TD9636_STAGE TD9636_WIND TD9636_PRES TD9635_LAT TD9635_LON TD9635_WIND TD9635_PRES TD9635_ROCI NEUMANN_LAT NEUMANN_LON NEUMANN_CLASS NEUMANN_WIND NEUMANN_PRES MLC_LAT MLC_LON MLC_CLASS MLC_WIND MLC_PRES USA_GUST BOM_GUST BOM_GUST_PER REUNION_GUST REUNION_GUST_PER USA_SEAHGT USA_SEARAD_NE USA_SEARAD_SE USA_SEARAD_SW USA_SEARAD_NW STORM_SPEED STORM_DIR
1984311N15291 1984 108 NA CS KLAUS 1984-11-05 18:00:00 TS 14.7000 -68.8000 15 1004 hurdat_atl main 314 314 O_____________ hurdat_atl AL181984 14.7000 -68.8000 TD 15 1004 -1 9 57
1984311N15291 1984 108 NA CS KLAUS 1984-11-05 21:00:00 TS 14.9402 -68.4152 main 353 317 P_____________ AL181984 14.9402 -68.4152 TD 15 1003 -1 8 54
1984311N15291 1984 108 NA CS KLAUS 1984-11-06 00:00:00 TS 15.2000 -68.1000 15 1003 hurdat_atl main 317 278 O_____________ hurdat_atl AL181984 15.2000 -68.1000 TD 15 1003 -1 8 42
1984311N15291 1984 108 NA CS KLAUS 1984-11-06 03:00:00 TS 15.4924 -67.8923 main 278 240 P_____________ AL181984 15.4924 -67.8923 TD 17 1003 -1 7 33
1984311N15291 1984 108 NA CS KLAUS 1984-11-06 06:00:00 TS 15.8000 -67.7000 20 1003 hurdat_atl main 240 202 O_____________ hurdat_atl AL181984 15.8000 -67.7000 TD 20 1003 -1 8 38
1984311N15291 1984 108 NA CS KLAUS 1984-11-06 09:00:00 TS 16.1001 -67.4000 main 202 168 P_____________ AL181984 16.1001 -67.4000 TD 22 1002 -1 8 44
1984311N15291 1984 108 NA CS KLAUS 1984-11-06 12:00:00 TS 16.4000 -67.1000 25 1002 hurdat_atl main 168 134 O_____________ hurdat_atl AL181984 16.4000 -67.1000 TD 25 1002 -1 8 38
1984311N15291 1984 108 NA CS KLAUS 1984-11-06 15:00:00 TS 16.7149 -66.8924 main 134 102 P_____________ AL181984 16.7149 -66.8924 TD 30 1001 -1 7 33
1984311N15291 1984 108 NA CS KLAUS 1984-11-06 18:00:00 TS 17.0000 -66.7000 35 1001 hurdat_atl main 102 84 O_____________ hurdat_atl AL181984 17.0000 -66.7000 TS 35 1001 0 6 41
1984311N15291 1984 108 NA CS KLAUS 1984-11-06 21:00:00 TS 17.2000 -66.4499 main 81 55 P_____________ AL181984 17.2000 -66.4499 TS 37 1000 0 6 50
1984311N15291 1984 108 NA CS KLAUS 1984-11-07 00:00:00 TS 17.4000 -66.2000 40 1000 hurdat_atl main 55 30 O_____________ hurdat_atl AL181984 17.4000 -66.2000 TS 40 1000 0 7 41
1984311N15291 1984 108 NA CS KLAUS 1984-11-07 03:00:00 TS 17.6924 -66.0074 main 30 0 P_____________ AL181984 17.6924 -66.0074 TS 42 999 0 7 32
1984311N15291 1984 108 NA CS KLAUS 1984-11-07 06:00:00 TS 18.0000 -65.8000 45 998 hurdat_atl main 0 0 O_____________ hurdat_atl AL181984 18.0000 -65.8000 TS 45 998 0 7 40
1984311N15291 1984 108 NA CS KLAUS 1984-11-07 09:00:00 TS 18.2500 -65.5074 main 10 10 P_____________ AL181984 18.2500 -65.5074 TS 47 997 0 8 49
1984311N15291 1984 108 NA CS KLAUS 1984-11-07 12:00:00 TS 18.5000 -65.2000 50 997 hurdat_atl main 43 43 O_____________ hurdat_atl AL181984 18.5000 -65.2000 TS 50 997 0 8 43
1984311N15291 1984 108 NA CS KLAUS 1984-11-07 15:00:00 TS 18.8149 -64.9575 main 77 77 P_____________ AL181984 18.8149 -64.9575 TS 55 996 0 8 38
1984311N15291 1984 108 NA NA KLAUS 1984-11-07 18:00:00 TS 19.1000 -64.7000 60 995 hurdat_atl main 122 122 O_____________ hurdat_atl AL181984 19.1000 -64.7000 TS 60 995 0 7 50
1984311N15291 1984 108 NA NA KLAUS 1984-11-07 21:00:00 TS 19.2799 -64.3799 main 161 161 P_____________ AL181984 19.2799 -64.3799 TS 62 993 0 7 66
1984311N15291 1984 108 NA NA KLAUS 1984-11-08 00:00:00 TS 19.4000 -64.0000 65 992 hurdat_atl main 202 202 O_____________ hurdat_atl AL181984 19.4000 -64.0000 HU 65 992 1 8 73
1984311N15291 1984 108 NA NA KLAUS 1984-11-08 03:00:00 TS 19.5150 -63.5650 main 243 243 P_____________ AL181984 19.5150 -63.5650 HU 67 990 1 9 77
1984311N15291 1984 108 NA NA KLAUS 1984-11-08 06:00:00 TS 19.6000 -63.1000 70 989 hurdat_atl main 295 295 O_____________ hurdat_atl AL181984 19.6000 -63.1000 HU 70 989 1 9 81
1984311N15291 1984 108 NA NA KLAUS 1984-11-08 09:00:00 TS 19.6499 -62.6424 main 342 342 P_____________ AL181984 19.6499 -62.6424 HU 72 987 1 9 83
1984311N15291 1984 108 NA NA KLAUS 1984-11-08 12:00:00 TS 19.7000 -62.2000 75 986 hurdat_atl main 385 385 O_____________ hurdat_atl AL181984 19.7000 -62.2000 HU 75 986 1 8 82
1984311N15291 1984 108 NA NA KLAUS 1984-11-08 15:00:00 TS 19.7700 -61.7774 main 428 428 P_____________ AL181984 19.7700 -61.7774 HU 77 985 1 8 75
1984311N15291 1984 108 NA NA KLAUS 1984-11-08 18:00:00 TS 19.9000 -61.4000 80 984 hurdat_atl main 471 471 O_____________ hurdat_atl AL181984 19.9000 -61.4000 HU 80 984 1 7 62
1984311N15291 1984 108 NA NA KLAUS 1984-11-08 21:00:00 TS 20.1123 -61.0924 main 509 509 P_____________ AL181984 20.1123 -61.0924 HU 80 983 1 8 48
1984311N15291 1984 108 NA NA KLAUS 1984-11-09 00:00:00 TS 20.4000 -60.8000 80 982 hurdat_atl main 550 550 O_____________ hurdat_atl AL181984 20.4000 -60.8000 HU 80 982 1 9 44
1984311N15291 1984 108 NA NA KLAUS 1984-11-09 03:00:00 TS 20.7350 -60.4500 main 593 593 P_____________ AL181984 20.7350 -60.4500 HU 80 981 1 10 43
1984311N15291 1984 108 NA NA KLAUS 1984-11-09 06:00:00 TS 21.1000 -60.1000 80 981 hurdat_atl main 649 649 O_____________ hurdat_atl AL181984 21.1000 -60.1000 HU 80 981 1 9 41
1984311N15291 1984 108 NA NA KLAUS 1984-11-09 09:00:00 TS 21.4348 -59.8071 main 692 692 P_____________ AL181984 21.4348 -59.8071 HU 80 980 1 9 39
1984311N15291 1984 108 NA NA KLAUS 1984-11-09 12:00:00 TS 21.8000 -59.5000 80 980 hurdat_atl main 741 741 O_____________ hurdat_atl AL181984 21.8000 -59.5000 HU 80 980 1 10 39
1984311N15291 1984 108 NA NA KLAUS 1984-11-09 15:00:00 TS 22.2200 -59.1223 main 799 799 P_____________ AL181984 22.2200 -59.1223 HU 80 980 1 12 39
1984311N15291 1984 108 NA NA KLAUS 1984-11-09 18:00:00 TS 22.7000 -58.7000 80 980 hurdat_atl main 864 864 O_____________ hurdat_atl AL181984 22.7000 -58.7000 HU 80 980 1 13 37
1984311N15291 1984 108 NA NA KLAUS 1984-11-09 21:00:00 TS 23.2422 -58.2797 main 929 929 P_____________ AL181984 23.2422 -58.2797 HU 80 979 1 14 37
1984311N15291 1984 108 NA NA KLAUS 1984-11-10 00:00:00 TS 23.8000 -57.8000 80 979 hurdat_atl main 1009 1009 O_____________ hurdat_atl AL181984 23.8000 -57.8000 HU 80 979 1 14 43
1984311N15291 1984 108 NA NA KLAUS 1984-11-10 03:00:00 TS 24.2773 -57.2365 main 1091 1091 P_____________ AL181984 24.2773 -57.2365 HU 77 978 1 15 48
1984311N15291 1984 108 NA NA KLAUS 1984-11-10 06:00:00 TS 24.8000 -56.6000 75 978 hurdat_atl main 1172 1172 O_____________ hurdat_atl AL181984 24.8000 -56.6000 HU 75 978 1 17 46
1984311N15291 1984 108 NA NA KLAUS 1984-11-10 09:00:00 TS 25.4401 -55.8996 main 1269 1269 P_____________ AL181984 25.4401 -55.8996 HU 75 977 1 19 42
1984311N15291 1984 108 NA NA KLAUS 1984-11-10 12:00:00 TS 26.2000 -55.2000 75 977 hurdat_atl main 1378 1378 O_____________ hurdat_atl AL181984 26.2000 -55.2000 HU 75 977 1 20 36
1984311N15291 1984 108 NA NA KLAUS 1984-11-10 15:00:00 TS 27.0922 -54.5699 main 1487 1487 P_____________ AL181984 27.0922 -54.5699 HU 75 976 1 21 31
1984311N15291 1984 108 NA NA KLAUS 1984-11-10 18:00:00 TS 28.0000 -54.0000 75 975 hurdat_atl main 1596 1596 O_____________ hurdat_atl AL181984 28.0000 -54.0000 HU 75 975 1 20 31
1984311N15291 1984 108 NA NA KLAUS 1984-11-10 21:00:00 TS 28.7724 -53.4470 main 1699 1699 P_____________ AL181984 28.7724 -53.4470 HU 75 973 1 17 30
1984311N15291 1984 108 NA NA KLAUS 1984-11-11 00:00:00 TS 29.5000 -53.0000 75 971 hurdat_atl main 1779 1779 O_____________ hurdat_atl AL181984 29.5000 -53.0000 HU 75 971 1 16 24
1984311N15291 1984 108 NA NA KLAUS 1984-11-11 03:00:00 TS 30.2723 -52.6821 main 1812 1737 P_____________ AL181984 30.2723 -52.6821 HU 72 973 1 16 16
1984311N15291 1984 108 NA NA KLAUS 1984-11-11 06:00:00 TS 31.0000 -52.5000 70 975 hurdat_atl main 1737 1671 O_____________ hurdat_atl AL181984 31.0000 -52.5000 HU 70 975 1 14 10
1984311N15291 1984 108 NA NA KLAUS 1984-11-11 09:00:00 TS 31.6224 -52.3898 main 1671 1604 P_____________ AL181984 31.6224 -52.3898 HU 70 976 1 12 4
1984311N15291 1984 108 NA NA KLAUS 1984-11-11 12:00:00 TS 32.2000 -52.4000 70 977 hurdat_atl main 1604 1537 O_____________ hurdat_atl AL181984 32.2000 -52.4000 HU 70 977 1 12 356
1984311N15291 1984 108 NA NA KLAUS 1984-11-11 15:00:00 TS 32.7999 -52.4902 main 1537 1469 P_____________ AL181984 32.7999 -52.4902 HU 70 978 1 12 348
1984311N15291 1984 108 NA NA KLAUS 1984-11-11 18:00:00 TS 33.4000 -52.7000 70 980 hurdat_atl main 1469 1402 O_____________ hurdat_atl AL181984 33.4000 -52.7000 HU 70 980 1 14 341
1984311N15291 1984 108 NA NA KLAUS 1984-11-11 21:00:00 TS 34.0750 -53.0115 main 1391 1335 P_____________ AL181984 34.0750 -53.0115 HU 70 981 1 13 334
1984311N15291 1984 108 NA NA KLAUS 1984-11-12 00:00:00 TS 34.6000 -53.4000 70 982 hurdat_atl main 1335 1311 O_____________ hurdat_atl AL181984 34.6000 -53.4000 HU 70 982 1 10 317
1984311N15291 1984 108 NA NA KLAUS 1984-11-12 03:00:00 TS 34.7749 -53.7935 main 1311 1296 P_____________ AL181984 34.7749 -53.7935 HU 70 982 1 7 287
1984311N15291 1984 108 NA NA KLAUS 1984-11-12 06:00:00 TS 34.8000 -54.2000 70 983 hurdat_atl main 1296 1267 O_____________ hurdat_atl AL181984 34.8000 -54.2000 HU 70 983 1 8 278
1984311N15291 1984 108 NA NA KLAUS 1984-11-12 09:00:00 TS 34.8777 -54.7195 main 1267 1246 P_____________ AL181984 34.8777 -54.7195 HU 67 983 1 7 287
1984311N15291 1984 108 NA NA KLAUS 1984-11-12 12:00:00 TS 35.0000 -55.0000 65 984 hurdat_atl main 1246 1233 O_____________ hurdat_atl AL181984 35.0000 -55.0000 HU 65 984 1 3 353
1984311N15291 1984 108 NA NA KLAUS 1984-11-12 15:00:00 TS 35.1896 -54.7643 main 1233 1221 P_____________ AL181984 35.1896 -54.7643 HU 62 984 0 8 53
1984311N15291 1984 108 NA NA KLAUS 1984-11-12 18:00:00 SS 35.5000 -54.2000 60 985 hurdat_atl main 1225 1190 O_____________ hurdat_atl AL181984 35.5000 -54.2000 SS 60 985 -2 12 53
1984311N15291 1984 108 NA NA KLAUS 1984-11-12 21:00:00 SS 35.9247 -53.5737 main 1190 1124 P_____________ AL181984 35.9247 -53.5737 SS 60 985 -2 15 49
1984311N15291 1984 108 NA NA KLAUS 1984-11-13 00:00:00 SS 36.5000 -52.8000 60 986 hurdat_atl main 1124 1060 O_____________ hurdat_atl AL181984 36.5000 -52.8000 SS 60 986 -2 18 46
1984311N15291 1984 108 NA NA KLAUS 1984-11-13 03:00:00 SS 37.1747 -51.9431 main 1051 981 P_____________ AL181984 37.1747 -51.9431 SS 57 986 -2 21 44
1984311N15291 1984 108 NA NA KLAUS 1984-11-13 06:00:00 SS 38.0000 -51.0000 55 987 hurdat_atl main 973 892 O_____________ hurdat_atl AL181984 38.0000 -51.0000 SS 55 987 -2 23 40
1984311N15291 1984 108 NA NA KLAUS 1984-11-13 09:00:00 SS 38.9621 -50.0142 main 884 814 P_____________ AL181984 38.9621 -50.0142 SS 55 987 -2 25 38
1984311N15291 1984 108 NA NA KLAUS 1984-11-13 12:00:00 SS 40.0000 -49.0000 55 988 hurdat_atl main 807 743 O_____________ hurdat_atl AL181984 40.0000 -49.0000 SS 55 988 -2 26 37
1984311N15291 1984 108 NA NA KLAUS 1984-11-13 15:00:00 SS 41.0139 -48.0000 main 748 711 P_____________ AL181984 41.0139 -48.0000 SS 52 988 -2 25 37
1984311N15291 1984 108 NA NA KLAUS 1984-11-13 18:00:00 ET 42.0000 -47.0000 50 989 hurdat_atl main 708 O_____________ hurdat_atl AL181984 42.0000 -47.0000 EX 50 989 -4 25 37

IBTrACS Databaseについて

本データベースは、米国NOAAが公開する1842年以降の世界の熱帯低気圧のベストトラックデータアーカイブInternational Best Track Archive for Climate Stewardship (IBTrACS)を、ウェブで閲覧しやすい形式に変換したものです。

最終更新日:2021-12-08